Songa Challenge — V7CZ8 — position and weather

sailwx.info

Track history (hours):
 
Tides and Currents Weather Stations Pressure Air Temp Water Temp Dewpoint Dewpoint Depression Visibility Wind Speed Wind Dir Waves Ship Positions

Songa Challenge

Last reported at 2017-Nov-20 00:30 UTC. Time now 2017-Dec-13 13:02 UTC.
Position N 51°04' E 001°27'.
Warning: this ship's position is 23 days out of date.

Length 146 m; draft 8.3 m.

Type: Ship (hazmat cat A). MMSI: 538005355.

Date/timePositionNaut miles runAvg speedWind from/ knotsBaromVisibWave heightAir tempDewpointWater temp
2017-Nov-20 00:30N 51°04' E 001°27'611.1
2017-Nov-20 00:00N 51°07' E 001°34'611.5
2017-Nov-19 23:30N 51°11' E 001°41'612.0
2017-Nov-19 23:00N 51°15' E 001°47'713.5
2017-Nov-19 22:30N 51°21' E 001°52'714.5
2017-Nov-19 22:00N 51°28' E 001°58'714.9
2017-Nov-19 21:31N 51°33' E 002°06'814.8
2017-Nov-19 20:58N 51°39' E 002°15'254 8.3
2017-Nov-18 14:16N 54°02' E 008°03'510.4
2017-Nov-18 13:47N 54°01' E 008°11'311.3
2017-Nov-18 13:30N 54°00' E 008°17'611.0
2017-Nov-18 13:00N 53°59' E 008°26'510.4
2017-Nov-18 12:30N 53°58' E 008°34'5 9.2
2017-Nov-18 12:00N 53°55' E 008°41'4 9.0
2017-Nov-18 11:30N 53°52' E 008°45'4 8.0
2017-Nov-18 11:00N 53°50' E 008°51'4 7.9
2017-Nov-18 10:30N 53°51' E 008°58'4 7.8
2017-Nov-18 10:00N 53°52' E 009°04'3 5.9
2017-Nov-18 09:30N 53°54' E 009°09'0 0.0
2017-Nov-18 09:00N 53°54' E 009°09'0 0.8
2017-Nov-18 08:30N 53°54' E 009°09'3 6.0
2017-Nov-18 08:01N 53°56' E 009°13'4 8.0
2017-Nov-18 07:30N 53°59' E 009°17'4 8.4
2017-Nov-18 07:00N 54°03' E 009°18'4 8.3
2017-Nov-18 06:30N 54°07' E 009°20'4 7.7
2017-Nov-18 06:00N 54°10' E 009°25'4 8.0
2017-Nov-18 05:30N 54°11' E 009°31'1 2.8
2017-Nov-18 05:00N 54°12' E 009°33'0 0.7
2017-Nov-18 04:30N 54°12' E 009°34'3 6.5
2017-Nov-18 04:00N 54°15' E 009°37'2 3.8
2017-Nov-18 03:30N 54°17' E 009°38'3 6.5
2017-Nov-18 03:00N 54°18' E 009°43'4 8.1
2017-Nov-18 02:30N 54°22' E 009°47'30 5.9
2017-Nov-17 21:20N 54°34' E 010°35'411.7
2017-Nov-17 21:00N 54°35' E 010°41'612.6
2017-Nov-17 20:30N 54°35' E 010°52'612.3
2017-Nov-17 20:00N 54°36' E 011°03'612.1
2017-Nov-17 19:30N 54°35' E 011°13'612.4
2017-Nov-17 19:00N 54°32' E 011°23'612.4
2017-Nov-17 18:30N 54°30' E 011°32'612.6
2017-Nov-17 18:00N 54°27' E 011°42'612.5
2017-Nov-17 17:30N 54°26' E 011°53'612.5
2017-Nov-17 17:00N 54°26' E 012°03'9311.4
2017-Nov-17 08:53N 54°40' E 014°42'513.0
2017-Nov-17 08:29N 54°40' E 014°51'613.2
2017-Nov-17 08:00N 54°41' E 015°02'12612.4
2017-Nov-16 21:49N 54°55' E 018°40'413.6
2017-Nov-16 21:30N 54°51' E 018°44'713.6
2017-Nov-16 21:00N 54°46' E 018°51'713.5
2017-Nov-16 20:31N 54°40' E 018°57'713.4
2017-Nov-16 20:00N 54°34' E 018°52'713.2
2017-Nov-16 19:30N 54°29' E 018°45'5 9.4
2017-Nov-16 19:01N 54°26' E 018°39'2 3.8
2017-Nov-16 18:30N 54°24' E 018°41'1 2.7
2017-Nov-16 18:00N 54°23' E 018°40'0 0.5
2017-Nov-16 17:28N 54°23' E 018°40'0 0.0
2017-Nov-16 16:54N 54°23' E 018°40'0 0.0
2017-Nov-16 16:30N 54°23' E 018°40'0 0.0
2017-Nov-16 16:00N 54°23' E 018°40'0 0.0
2017-Nov-16 15:30N 54°23' E 018°40'0 0.0
2017-Nov-16 14:57N 54°23' E 018°40'0 0.0
2017-Nov-16 14:27N 54°23' E 018°40'0 0.0
2017-Nov-16 14:00N 54°23' E 018°40'0 0.0
2017-Nov-16 13:27N 54°23' E 018°40'0 0.0
2017-Nov-16 13:00N 54°23' E 018°40'0 0.0
2017-Nov-16 12:30N 54°23' E 018°40'0 0.0
2017-Nov-16 12:00N 54°23' E 018°40'0 0.0
2017-Nov-16 11:30N 54°23' E 018°40'0 0.0
2017-Nov-16 10:15N 54°23' E 018°40'0 0.0
2017-Nov-16 09:57N 54°23' E 018°40'0 0.0
2017-Nov-16 09:30N 54°23' E 018°40'0 0.0
2017-Nov-16 08:57N 54°23' E 018°40'0 0.0
2017-Nov-16 08:30N 54°23' E 018°40'0 0.0
2017-Nov-16 07:57N 54°23' E 018°40'0 0.0
2017-Nov-16 07:27N 54°23' E 018°40'0 0.0
2017-Nov-16 07:00N 54°23' E 018°40'0 0.0
2017-Nov-16 06:30N 54°23' E 018°40'0 0.0
2017-Nov-16 05:57N 54°23' E 018°40'0 0.0
2017-Nov-16 05:30N 54°23' E 018°40'0 0.0
2017-Nov-16 04:48N 54°23' E 018°40'0 0.0
2017-Nov-16 04:30N 54°23' E 018°40'0 0.0
2017-Nov-16 03:51N 54°23' E 018°40'0 0.0
2017-Nov-16 03:21N 54°23' E 018°40'0 0.0
2017-Nov-16 03:00N 54°23' E 018°40'0 0.0
2017-Nov-16 02:30N 54°23' E 018°40'0 0.0
2017-Nov-16 02:00N 54°23' E 018°40'0 0.0
2017-Nov-16 01:18N 54°23' E 018°40'0 0.0
2017-Nov-16 01:00N 54°23' E 018°40'0 0.0
2017-Nov-16 00:30N 54°23' E 018°40'0 0.0
2017-Nov-16 00:00N 54°23' E 018°40'0 0.0
2017-Nov-15 23:30N 54°23' E 018°40'0 0.0
2017-Nov-15 22:57N 54°23' E 018°40'0 0.0
2017-Nov-15 22:30N 54°23' E 018°40'0 0.0
2017-Nov-15 21:51N 54°23' E 018°40'0 0.0
2017-Nov-15 21:21N 54°23' E 018°40'0 0.0
2017-Nov-15 20:51N 54°23' E 018°40'0 0.0
2017-Nov-15 20:27N 54°23' E 018°40'0 0.0
2017-Nov-15 19:54N 54°23' E 018°40'0 0.0
2017-Nov-15 19:30N 54°23' E 018°40'0 0.0
2017-Nov-15 18:57N 54°23' E 018°40'0 0.0
2017-Nov-15 18:27N 54°23' E 018°40'0 0.0
2017-Nov-15 17:18N 54°23' E 018°40'0 0.0
2017-Nov-15 16:57N 54°23' E 018°40'0 0.0
2017-Nov-15 16:27N 54°23' E 018°40'0 0.0
2017-Nov-15 16:00N 54°23' E 018°40'0 0.0
2017-Nov-15 15:27N 54°23' E 018°40'0 0.0
2017-Nov-15 14:57N 54°23' E 018°40'0 0.0
2017-Nov-15 14:27N 54°23' E 018°40'0 0.0
2017-Nov-15 14:00N 54°23' E 018°40'0 0.0
2017-Nov-15 13:27N 54°23' E 018°40'0 0.0
2017-Nov-15 13:00N 54°23' E 018°40'0 0.0
2017-Nov-15 12:24N 54°23' E 018°40'0 0.0
2017-Nov-15 11:57N 54°23' E 018°40'0 0.0
2017-Nov-15 11:27N 54°23' E 018°40'0 0.0
2017-Nov-15 11:00N 54°23' E 018°40'0 0.0
2017-Nov-15 10:30N 54°23' E 018°40'0 0.0
2017-Nov-15 09:57N 54°23' E 018°40'0 0.0
2017-Nov-15 09:15N 54°23' E 018°40'0 0.0
2017-Nov-15 09:00N 54°23' E 018°40'0 0.0
2017-Nov-15 08:12N 54°23' E 018°40'0 0.0
2017-Nov-15 08:00N 54°23' E 018°40'0 0.0
2017-Nov-15 07:24N 54°23' E 018°40'0 0.0
2017-Nov-15 07:00N 54°23' E 018°40'0 0.0
2017-Nov-15 06:30N 54°23' E 018°40'0 0.0
2017-Nov-15 06:00N 54°23' E 018°40'0 0.0
2017-Nov-15 05:30N 54°23' E 018°40'0 0.0
2017-Nov-15 05:00N 54°23' E 018°40'0 0.0
2017-Nov-15 04:30N 54°23' E 018°40'0 0.0
2017-Nov-15 04:00N 54°23' E 018°40'0 0.0
2017-Nov-15 03:24N 54°23' E 018°40'0 0.0
2017-Nov-15 03:00N 54°23' E 018°40'0 0.0
2017-Nov-15 02:30N 54°23' E 018°40'0 0.0
2017-Nov-15 02:00N 54°23' E 018°40'0 0.0
2017-Nov-15 01:27N 54°23' E 018°40'0 0.0
2017-Nov-15 01:00N 54°23' E 018°40'0 0.0
2017-Nov-15 00:30N 54°23' E 018°40'0 0.0
2017-Nov-14 23:57N 54°23' E 018°40'0 0.0
2017-Nov-14 23:22N 54°23' E 018°40'0 0.5
2017-Nov-14 23:00N 54°23' E 018°40'2 3.0
2017-Nov-14 22:31N 54°24' E 018°40'3 5.4
2017-Nov-14 22:01N 54°27' E 018°41'1 1.5
2017-Nov-14 21:31N 54°27' E 018°42'0 0.0
2017-Nov-14 21:00N 54°27' E 018°42'0 0.1
2017-Nov-14 20:28N 54°27' E 018°42'0 0.1
2017-Nov-14 19:58N 54°27' E 018°42'0 0.1
2017-Nov-14 19:28N 54°27' E 018°42'0 0.0
2017-Nov-14 18:58N 54°27' E 018°42'0 0.0
2017-Nov-14 18:28N 54°27' E 018°42'0 0.0
2017-Nov-14 17:58N 54°27' E 018°42'0 0.0
2017-Nov-14 17:28N 54°27' E 018°42'0 0.0
2017-Nov-14 16:58N 54°27' E 018°42'0 0.0
2017-Nov-14 16:28N 54°27' E 018°42'0 0.0
2017-Nov-14 15:58N 54°27' E 018°42'0 0.0
2017-Nov-14 15:28N 54°27' E 018°42'0 0.0
2017-Nov-14 14:58N 54°27' E 018°42'0 0.0
2017-Nov-14 14:28N 54°27' E 018°42'0 0.0
2017-Nov-14 13:58N 54°27' E 018°42'0 0.0
2017-Nov-14 13:28N 54°27' E 018°42'0 0.0
2017-Nov-14 12:58N 54°27' E 018°42'0 0.0
2017-Nov-14 12:28N 54°27' E 018°42'0 0.0
2017-Nov-14 11:55N 54°27' E 018°42'0 0.0
2017-Nov-14 11:28N 54°27' E 018°42'1 1.3
2017-Nov-14 11:01N 54°27' E 018°43'3 5.2
2017-Nov-14 10:31N 54°30' E 018°44'612.1
2017-Nov-14 10:01N 54°34' E 018°51'612.4
2017-Nov-14 09:31N 54°40' E 018°56'612.2
2017-Nov-14 09:00N 54°46' E 018°59'612.0
2017-Nov-14 08:31N 54°52' E 019°00'612.2
2017-Nov-14 08:00N 54°58' E 019°02'612.0
2017-Nov-14 07:31N 55°03' E 019°06'612.2
2017-Nov-14 07:00N 55°09' E 019°12'272 5.3
2017-Nov-12 04:04N 59°40' E 019°51'113.1
2017-Nov-12 04:00N 59°41' E 019°50'713.1
2017-Nov-12 03:30N 59°46' E 019°41'613.2
2017-Nov-12 03:01N 59°51' E 019°33'713.1
2017-Nov-12 02:31N 59°56' E 019°25'713.3
2017-Nov-12 02:01N 60°01' E 019°17'713.1
2017-Nov-12 01:30N 60°06' E 019°08'612.6
2017-Nov-12 01:00N 60°11' E 019°01'713.3
2017-Nov-12 00:30N 60°18' E 019°00'713.1
2017-Nov-11 23:59N 60°25' E 018°60'7012.6
2017-Nov-11 18:25N 61°07' E 020°54'512.5
2017-Nov-11 18:00N 61°09' E 021°03'4 7.6
2017-Nov-11 17:30N 61°07' E 021°10'510.6
2017-Nov-11 17:00N 61°06' E 021°21'3 6.4
2017-Nov-11 16:30N 61°08' E 021°27'0 0.0
2017-Nov-11 15:59N 61°08' E 021°27'0 0.0
2017-Nov-11 15:29N 61°08' E 021°27'0 0.0
2017-Nov-11 14:59N 61°08' E 021°27'0 0.0
2017-Nov-11 14:29N 61°08' E 021°27'0 0.0
2017-Nov-11 13:59N 61°08' E 021°27'0 0.0
2017-Nov-11 13:29N 61°08' E 021°27'0 0.0
2017-Nov-11 12:59N 61°08' E 021°27'0 0.0
2017-Nov-11 12:29N 61°08' E 021°27'0 0.0
2017-Nov-11 11:59N 61°08' E 021°27'0 0.0
2017-Nov-11 11:29N 61°08' E 021°27'0 0.0
2017-Nov-11 10:59N 61°08' E 021°27'0 0.0
2017-Nov-11 10:29N 61°08' E 021°27'0 0.0
2017-Nov-11 09:59N 61°08' E 021°27'0 0.0
2017-Nov-11 09:29N 61°08' E 021°27'0 0.0
2017-Nov-11 08:59N 61°08' E 021°27'0 0.0
2017-Nov-11 08:29N 61°08' E 021°27'0 0.0
2017-Nov-11 07:59N 61°08' E 021°27'0 0.0
2017-Nov-11 07:29N 61°08' E 021°27'0 0.0
2017-Nov-11 06:59N 61°08' E 021°27'0 0.0
2017-Nov-11 06:29N 61°08' E 021°27'0 0.0
2017-Nov-11 05:59N 61°08' E 021°27'0 0.0
2017-Nov-11 05:29N 61°08' E 021°27'0 0.0
2017-Nov-11 04:59N 61°08' E 021°27'0 0.0
2017-Nov-11 04:29N 61°08' E 021°27'0 0.0
2017-Nov-11 03:59N 61°08' E 021°27'0 0.0
2017-Nov-11 03:29N 61°08' E 021°27'0 0.0
2017-Nov-11 02:59N 61°08' E 021°27'0 0.0
2017-Nov-11 02:29N 61°08' E 021°27'0 0.0
2017-Nov-11 01:59N 61°08' E 021°27'0 0.0
2017-Nov-11 01:29N 61°08' E 021°27'0 0.0
2017-Nov-11 00:59N 61°08' E 021°27'0 0.0
2017-Nov-11 00:29N 61°08' E 021°27'0 0.0
2017-Nov-10 23:59N 61°08' E 021°27'1 1.3
2017-Nov-10 23:30N 61°08' E 021°26'2 4.6
2017-Nov-10 23:00N 61°06' E 021°22'510.7
2017-Nov-10 22:31N 61°07' E 021°11'4 8.9
2017-Nov-10 22:01N 61°10' E 021°03'611.6
2017-Nov-10 21:30N 61°15' E 020°57'  
Track history (hours):
 
Tides and Currents Weather Stations Pressure Air Temp Water Temp Dewpoint Dewpoint Depression Visibility Wind Speed Wind Dir Waves Ship Positions

Songa Challenge

Last reported at 2017-Nov-20 00:30 UTC. Time now 2017-Dec-13 13:02 UTC.
Position N 51°04' E 001°27'.
Warning: this ship's position is 23 days out of date.

Length 146 m; draft 8.3 m.

Type: Ship (hazmat cat A). MMSI: 538005355.

Date/timePositionNaut miles runAvg speedWind from/ knotsBaromVisibWave heightAir tempDewpointWater temp
2017-Nov-20 00:30N 51°04' E 001°27'611.1
2017-Nov-20 00:00N 51°07' E 001°34'611.5
2017-Nov-19 23:30N 51°11' E 001°41'612.0
2017-Nov-19 23:00N 51°15' E 001°47'713.5
2017-Nov-19 22:30N 51°21' E 001°52'714.5
2017-Nov-19 22:00N 51°28' E 001°58'714.9
2017-Nov-19 21:31N 51°33' E 002°06'814.8
2017-Nov-19 20:58N 51°39' E 002°15'254 8.3
2017-Nov-18 14:16N 54°02' E 008°03'510.4
2017-Nov-18 13:47N 54°01' E 008°11'311.3
2017-Nov-18 13:30N 54°00' E 008°17'611.0
2017-Nov-18 13:00N 53°59' E 008°26'510.4
2017-Nov-18 12:30N 53°58' E 008°34'5 9.2
2017-Nov-18 12:00N 53°55' E 008°41'4 9.0
2017-Nov-18 11:30N 53°52' E 008°45'4 8.0
2017-Nov-18 11:00N 53°50' E 008°51'4 7.9
2017-Nov-18 10:30N 53°51' E 008°58'4 7.8
2017-Nov-18 10:00N 53°52' E 009°04'3 5.9
2017-Nov-18 09:30N 53°54' E 009°09'0 0.0
2017-Nov-18 09:00N 53°54' E 009°09'0 0.8
2017-Nov-18 08:30N 53°54' E 009°09'3 6.0
2017-Nov-18 08:01N 53°56' E 009°13'4 8.0
2017-Nov-18 07:30N 53°59' E 009°17'4 8.4
2017-Nov-18 07:00N 54°03' E 009°18'4 8.3
2017-Nov-18 06:30N 54°07' E 009°20'4 7.7
2017-Nov-18 06:00N 54°10' E 009°25'4 8.0
2017-Nov-18 05:30N 54°11' E 009°31'1 2.8
2017-Nov-18 05:00N 54°12' E 009°33'0 0.7
2017-Nov-18 04:30N 54°12' E 009°34'3 6.5
2017-Nov-18 04:00N 54°15' E 009°37'2 3.8
2017-Nov-18 03:30N 54°17' E 009°38'3 6.5
2017-Nov-18 03:00N 54°18' E 009°43'4 8.1
2017-Nov-18 02:30N 54°22' E 009°47'30 5.9
2017-Nov-17 21:20N 54°34' E 010°35'411.7
2017-Nov-17 21:00N 54°35' E 010°41'612.6
2017-Nov-17 20:30N 54°35' E 010°52'612.3
2017-Nov-17 20:00N 54°36' E 011°03'612.1
2017-Nov-17 19:30N 54°35' E 011°13'612.4
2017-Nov-17 19:00N 54°32' E 011°23'612.4
2017-Nov-17 18:30N 54°30' E 011°32'612.6
2017-Nov-17 18:00N 54°27' E 011°42'612.5
2017-Nov-17 17:30N 54°26' E 011°53'612.5
2017-Nov-17 17:00N 54°26' E 012°03'9311.4
2017-Nov-17 08:53N 54°40' E 014°42'513.0
2017-Nov-17 08:29N 54°40' E 014°51'613.2
2017-Nov-17 08:00N 54°41' E 015°02'12612.4
2017-Nov-16 21:49N 54°55' E 018°40'413.6
2017-Nov-16 21:30N 54°51' E 018°44'713.6
2017-Nov-16 21:00N 54°46' E 018°51'713.5
2017-Nov-16 20:31N 54°40' E 018°57'713.4
2017-Nov-16 20:00N 54°34' E 018°52'713.2
2017-Nov-16 19:30N 54°29' E 018°45'5 9.4
2017-Nov-16 19:01N 54°26' E 018°39'2 3.8
2017-Nov-16 18:30N 54°24' E 018°41'1 2.7
2017-Nov-16 18:00N 54°23' E 018°40'0 0.5
2017-Nov-16 17:28N 54°23' E 018°40'0 0.0
2017-Nov-16 16:54N 54°23' E 018°40'0 0.0
2017-Nov-16 16:30N 54°23' E 018°40'0 0.0
2017-Nov-16 16:00N 54°23' E 018°40'0 0.0
2017-Nov-16 15:30N 54°23' E 018°40'0 0.0
2017-Nov-16 14:57N 54°23' E 018°40'0 0.0
2017-Nov-16 14:27N 54°23' E 018°40'0 0.0
2017-Nov-16 14:00N 54°23' E 018°40'0 0.0
2017-Nov-16 13:27N 54°23' E 018°40'0 0.0
2017-Nov-16 13:00N 54°23' E 018°40'0 0.0
2017-Nov-16 12:30N 54°23' E 018°40'0 0.0
2017-Nov-16 12:00N 54°23' E 018°40'0 0.0
2017-Nov-16 11:30N 54°23' E 018°40'0 0.0
2017-Nov-16 10:15N 54°23' E 018°40'0 0.0
2017-Nov-16 09:57N 54°23' E 018°40'0 0.0
2017-Nov-16 09:30N 54°23' E 018°40'0 0.0
2017-Nov-16 08:57N 54°23' E 018°40'0 0.0
2017-Nov-16 08:30N 54°23' E 018°40'0 0.0
2017-Nov-16 07:57N 54°23' E 018°40'0 0.0
2017-Nov-16 07:27N 54°23' E 018°40'0 0.0
2017-Nov-16 07:00N 54°23' E 018°40'0 0.0
2017-Nov-16 06:30N 54°23' E 018°40'0 0.0
2017-Nov-16 05:57N 54°23' E 018°40'0 0.0
2017-Nov-16 05:30N 54°23' E 018°40'0 0.0
2017-Nov-16 04:48N 54°23' E 018°40'0 0.0
2017-Nov-16 04:30N 54°23' E 018°40'0 0.0
2017-Nov-16 03:51N 54°23' E 018°40'0 0.0
2017-Nov-16 03:21N 54°23' E 018°40'0 0.0
2017-Nov-16 03:00N 54°23' E 018°40'0 0.0
2017-Nov-16 02:30N 54°23' E 018°40'0 0.0
2017-Nov-16 02:00N 54°23' E 018°40'0 0.0
2017-Nov-16 01:18N 54°23' E 018°40'0 0.0
2017-Nov-16 01:00N 54°23' E 018°40'0 0.0
2017-Nov-16 00:30N 54°23' E 018°40'0 0.0
2017-Nov-16 00:00N 54°23' E 018°40'0 0.0
2017-Nov-15 23:30N 54°23' E 018°40'0 0.0
2017-Nov-15 22:57N 54°23' E 018°40'0 0.0
2017-Nov-15 22:30N 54°23' E 018°40'0 0.0
2017-Nov-15 21:51N 54°23' E 018°40'0 0.0
2017-Nov-15 21:21N 54°23' E 018°40'0 0.0
2017-Nov-15 20:51N 54°23' E 018°40'0 0.0
2017-Nov-15 20:27N 54°23' E 018°40'0 0.0
2017-Nov-15 19:54N 54°23' E 018°40'0 0.0
2017-Nov-15 19:30N 54°23' E 018°40'0 0.0
2017-Nov-15 18:57N 54°23' E 018°40'0 0.0
2017-Nov-15 18:27N 54°23' E 018°40'0 0.0
2017-Nov-15 17:18N 54°23' E 018°40'0 0.0
2017-Nov-15 16:57N 54°23' E 018°40'0 0.0
2017-Nov-15 16:27N 54°23' E 018°40'0 0.0
2017-Nov-15 16:00N 54°23' E 018°40'0 0.0
2017-Nov-15 15:27N 54°23' E 018°40'0 0.0
2017-Nov-15 14:57N 54°23' E 018°40'0 0.0
2017-Nov-15 14:27N 54°23' E 018°40'0 0.0
2017-Nov-15 14:00N 54°23' E 018°40'0 0.0
2017-Nov-15 13:27N 54°23' E 018°40'0 0.0
2017-Nov-15 13:00N 54°23' E 018°40'0 0.0
2017-Nov-15 12:24N 54°23' E 018°40'0 0.0
2017-Nov-15 11:57N 54°23' E 018°40'0 0.0
2017-Nov-15 11:27N 54°23' E 018°40'0 0.0
2017-Nov-15 11:00N 54°23' E 018°40'0 0.0
2017-Nov-15 10:30N 54°23' E 018°40'0 0.0
2017-Nov-15 09:57N 54°23' E 018°40'0 0.0
2017-Nov-15 09:15N 54°23' E 018°40'0 0.0
2017-Nov-15 09:00N 54°23' E 018°40'0 0.0
2017-Nov-15 08:12N 54°23' E 018°40'0 0.0
2017-Nov-15 08:00N 54°23' E 018°40'0 0.0
2017-Nov-15 07:24N 54°23' E 018°40'0 0.0
2017-Nov-15 07:00N 54°23' E 018°40'0 0.0
2017-Nov-15 06:30N 54°23' E 018°40'0 0.0
2017-Nov-15 06:00N 54°23' E 018°40'0 0.0
2017-Nov-15 05:30N 54°23' E 018°40'0 0.0
2017-Nov-15 05:00N 54°23' E 018°40'0 0.0
2017-Nov-15 04:30N 54°23' E 018°40'0 0.0
2017-Nov-15 04:00N 54°23' E 018°40'0 0.0
2017-Nov-15 03:24N 54°23' E 018°40'0 0.0
2017-Nov-15 03:00N 54°23' E 018°40'0 0.0
2017-Nov-15 02:30N 54°23' E 018°40'0 0.0
2017-Nov-15 02:00N 54°23' E 018°40'0 0.0
2017-Nov-15 01:27N 54°23' E 018°40'0 0.0
2017-Nov-15 01:00N 54°23' E 018°40'0 0.0
2017-Nov-15 00:30N 54°23' E 018°40'0 0.0
2017-Nov-14 23:57N 54°23' E 018°40'0 0.0
2017-Nov-14 23:22N 54°23' E 018°40'0 0.5
2017-Nov-14 23:00N 54°23' E 018°40'2 3.0
2017-Nov-14 22:31N 54°24' E 018°40'3 5.4
2017-Nov-14 22:01N 54°27' E 018°41'1 1.5
2017-Nov-14 21:31N 54°27' E 018°42'0 0.0
2017-Nov-14 21:00N 54°27' E 018°42'0 0.1
2017-Nov-14 20:28N 54°27' E 018°42'0 0.1
2017-Nov-14 19:58N 54°27' E 018°42'0 0.1
2017-Nov-14 19:28N 54°27' E 018°42'0 0.0
2017-Nov-14 18:58N 54°27' E 018°42'0 0.0
2017-Nov-14 18:28N 54°27' E 018°42'0 0.0
2017-Nov-14 17:58N 54°27' E 018°42'0 0.0
2017-Nov-14 17:28N 54°27' E 018°42'0 0.0
2017-Nov-14 16:58N 54°27' E 018°42'0 0.0
2017-Nov-14 16:28N 54°27' E 018°42'0 0.0
2017-Nov-14 15:58N 54°27' E 018°42'0 0.0
2017-Nov-14 15:28N 54°27' E 018°42'0 0.0
2017-Nov-14 14:58N 54°27' E 018°42'0 0.0
2017-Nov-14 14:28N 54°27' E 018°42'0 0.0
2017-Nov-14 13:58N 54°27' E 018°42'0 0.0
2017-Nov-14 13:28N 54°27' E 018°42'0 0.0
2017-Nov-14 12:58N 54°27' E 018°42'0 0.0
2017-Nov-14 12:28N 54°27' E 018°42'0 0.0
2017-Nov-14 11:55N 54°27' E 018°42'0 0.0
2017-Nov-14 11:28N 54°27' E 018°42'1 1.3
2017-Nov-14 11:01N 54°27' E 018°43'3 5.2
2017-Nov-14 10:31N 54°30' E 018°44'612.1
2017-Nov-14 10:01N 54°34' E 018°51'612.4
2017-Nov-14 09:31N 54°40' E 018°56'612.2
2017-Nov-14 09:00N 54°46' E 018°59'612.0
2017-Nov-14 08:31N 54°52' E 019°00'612.2
2017-Nov-14 08:00N 54°58' E 019°02'612.0
2017-Nov-14 07:31N 55°03' E 019°06'612.2
2017-Nov-14 07:00N 55°09' E 019°12'272 5.3
2017-Nov-12 04:04N 59°40' E 019°51'113.1
2017-Nov-12 04:00N 59°41' E 019°50'713.1
2017-Nov-12 03:30N 59°46' E 019°41'613.2
2017-Nov-12 03:01N 59°51' E 019°33'713.1
2017-Nov-12 02:31N 59°56' E 019°25'713.3
2017-Nov-12 02:01N 60°01' E 019°17'713.1
2017-Nov-12 01:30N 60°06' E 019°08'612.6
2017-Nov-12 01:00N 60°11' E 019°01'713.3
2017-Nov-12 00:30N 60°18' E 019°00'713.1
2017-Nov-11 23:59N 60°25' E 018°60'7012.6
2017-Nov-11 18:25N 61°07' E 020°54'512.5
2017-Nov-11 18:00N 61°09' E 021°03'4 7.6
2017-Nov-11 17:30N 61°07' E 021°10'510.6
2017-Nov-11 17:00N 61°06' E 021°21'3 6.4
2017-Nov-11 16:30N 61°08' E 021°27'0 0.0
2017-Nov-11 15:59N 61°08' E 021°27'0 0.0
2017-Nov-11 15:29N 61°08' E 021°27'0 0.0
2017-Nov-11 14:59N 61°08' E 021°27'0 0.0
2017-Nov-11 14:29N 61°08' E 021°27'0 0.0
2017-Nov-11 13:59N 61°08' E 021°27'0 0.0
2017-Nov-11 13:29N 61°08' E 021°27'0 0.0
2017-Nov-11 12:59N 61°08' E 021°27'0 0.0
2017-Nov-11 12:29N 61°08' E 021°27'0 0.0
2017-Nov-11 11:59N 61°08' E 021°27'0 0.0
2017-Nov-11 11:29N 61°08' E 021°27'0 0.0
2017-Nov-11 10:59N 61°08' E 021°27'0 0.0
2017-Nov-11 10:29N 61°08' E 021°27'0 0.0
2017-Nov-11 09:59N 61°08' E 021°27'0 0.0
2017-Nov-11 09:29N 61°08' E 021°27'0 0.0
2017-Nov-11 08:59N 61°08' E 021°27'0 0.0
2017-Nov-11 08:29N 61°08' E 021°27'0 0.0
2017-Nov-11 07:59N 61°08' E 021°27'0 0.0
2017-Nov-11 07:29N 61°08' E 021°27'0 0.0
2017-Nov-11 06:59N 61°08' E 021°27'0 0.0
2017-Nov-11 06:29N 61°08' E 021°27'0 0.0
2017-Nov-11 05:59N 61°08' E 021°27'0 0.0
2017-Nov-11 05:29N 61°08' E 021°27'0 0.0
2017-Nov-11 04:59N 61°08' E 021°27'0 0.0
2017-Nov-11 04:29N 61°08' E 021°27'0 0.0
2017-Nov-11 03:59N 61°08' E 021°27'0 0.0
2017-Nov-11 03:29N 61°08' E 021°27'0 0.0
2017-Nov-11 02:59N 61°08' E 021°27'0 0.0
2017-Nov-11 02:29N 61°08' E 021°27'0 0.0
2017-Nov-11 01:59N 61°08' E 021°27'0 0.0
2017-Nov-11 01:29N 61°08' E 021°27'0 0.0
2017-Nov-11 00:59N 61°08' E 021°27'0 0.0
2017-Nov-11 00:29N 61°08' E 021°27'0 0.0
2017-Nov-10 23:59N 61°08' E 021°27'1 1.3
2017-Nov-10 23:30N 61°08' E 021°26'2 4.6
2017-Nov-10 23:00N 61°06' E 021°22'510.7
2017-Nov-10 22:31N 61°07' E 021°11'4 8.9
2017-Nov-10 22:01N 61°10' E 021°03'611.6
2017-Nov-10 21:30N 61°15' E 020°57'  

Dump ship's entire track history